Time;durP1;ratioP1;P1;durP2;ratioP2;P2;SDS_P1;SDS_P2;PMS_P1;PMS_P2;Temp;Humidity;BMP_temperature;BMP_pressure;BME280_temperature;BME280_humidity;BME280_pressure;Samples;Min_cycle;Max_cycle;Signal;HPM_P1;HPM_P2
2023/10/31 00:00:31;;;;;;;2.25;1.80;;;;;;;10.79;nan;32464.81;4992805;28;20181;-76
2023/10/31 00:02:57;;;;;;;1.73;1.63;;;;;;;10.96;nan;31827.59;4991472;28;20259;-73
2023/10/31 00:05:22;;;;;;;2.45;1.98;;;;;;;10.96;nan;31503.00;4992335;28;20251;-76
2023/10/31 00:07:48;;;;;;;1.27;1.23;;;;;;;11.05;nan;30535.97;4992502;28;20172;-74
2023/10/31 00:10:13;;;;;;;3.13;2.35;;;;;;;10.93;nan;29232.25;4992620;28;20540;-74
2023/10/31 00:12:39;;;;;;;1.65;1.55;;;;;;;10.79;nan;25662.75;4992925;28;20286;-75
2023/10/31 00:15:05;;;;;;;1.60;1.50;;;;;;;10.84;nan;23724.28;4992812;28;20173;-74
2023/10/31 00:17:30;;;;;;;2.22;1.85;;;;;;;10.90;nan;21787.09;4992737;28;20239;-76
2023/10/31 00:19:56;;;;;;;1.50;1.40;;;;;;;10.86;nan;19846.25;4992474;28;20279;-76
2023/10/31 00:22:22;;;;;;;3.97;2.53;;;;;;;10.71;nan;19193.72;4990852;28;20732;-74
2023/10/31 00:24:47;;;;;;;1.95;1.73;;;;;;;10.85;nan;18876.53;4992762;28;20176;-76
2023/10/31 00:27:12;;;;;;;1.30;1.27;;;;;;;10.74;nan;18226.13;4991061;28;20184;-75
2023/10/31 00:29:38;;;;;;;1.58;1.48;;;;;;;10.48;nan;17247.78;4992382;28;20248;-74
2023/10/31 00:32:04;;;;;;;1.70;1.52;;;;;;;10.81;nan;15969.66;4992516;28;20201;-76
2023/10/31 00:34:29;;;;;;;1.42;1.33;;;;;;;10.73;nan;14354.09;4990900;28;20213;-76
2023/10/31 00:36:55;;;;;;;1.95;1.75;;;;;;;10.58;nan;14348.84;4992138;28;20188;-74
2023/10/31 00:39:21;;;;;;;2.13;1.67;;;;;;;10.78;nan;13388.38;4992597;28;20628;-74
2023/10/31 00:41:47;;;;;;;4.00;1.67;;;;;;;10.78;nan;12743.66;5007544;28;20560;-75
2023/10/31 00:44:13;;;;;;;1.58;1.48;;;;;;;10.67;nan;14352.00;4992684;28;20260;-76
2023/10/31 00:46:39;;;;;;;2.05;1.80;;;;;;;10.67;nan;15319.25;4991090;28;20220;-74
2023/10/31 00:49:04;;;;;;;1.60;1.50;;;;;;;10.77;nan;15322.91;4992612;28;20189;-75
2023/10/31 00:51:29;;;;;;;1.90;1.38;;;;;;;10.77;nan;14032.88;4992396;28;20196;-73
2023/10/31 00:53:55;;;;;;;1.58;1.48;;;;;;;10.67;nan;15964.34;4992119;28;20192;-75
2023/10/31 00:56:20;;;;;;;1.85;1.75;;;;;;;10.86;nan;16294.22;4994116;28;20169;-74
2023/10/31 00:58:46;;;;;;;1.50;1.40;;;;;;;10.66;nan;16931.84;5011021;28;20202;-75
2023/10/31 01:01:11;;;;;;;1.90;1.80;;;;;;;10.74;nan;16612.31;4995971;28;20175;-74
2023/10/31 01:03:37;;;;;;;1.58;1.48;;;;;;;10.56;nan;16282.94;4995179;28;20652;-75
2023/10/31 01:06:03;;;;;;;1.48;1.38;;;;;;;10.65;nan;15963.78;4995997;28;20196;-73
2023/10/31 01:08:29;;;;;;;1.90;1.42;;;;;;;10.40;nan;13698.19;4995398;28;20228;-73
2023/10/31 01:10:55;;;;;;;1.77;1.45;;;;;;;10.60;nan;14027.16;4995851;28;20655;-76
2023/10/31 01:13:20;;;;;;;2.50;2.30;;;;;;;10.46;nan;15311.72;4995391;28;20247;-75
2023/10/31 01:15:46;;;;;;;2.53;2.15;;;;;;;10.25;nan;15304.03;4995489;28;20166;-74
2023/10/31 01:18:11;;;;;;;1.80;1.70;;;;;;;10.51;nan;16281.22;4995935;28;20208;-73
2023/10/31 01:20:38;;;;;;;1.98;1.75;;;;;;;10.48;nan;19183.78;4994880;28;20308;-76
2023/10/31 01:23:03;;;;;;;1.80;1.70;;;;;;;10.55;nan;19832.75;4994626;28;20176;-74
2023/10/31 01:25:29;;;;;;;2.25;2.05;;;;;;;10.58;nan;20480.00;4995326;28;20173;-76
2023/10/31 01:27:54;;;;;;;2.40;1.73;;;;;;;10.34;nan;19500.72;4995412;28;20175;-74
2023/10/31 01:30:20;;;;;;;1.58;1.48;;;;;;;10.12;nan;18845.91;4995296;28;20624;-75
2023/10/31 01:32:45;;;;;;;1.38;1.33;;;;;;;10.29;nan;18530.28;4994565;28;20757;-74
2023/10/31 01:35:11;;;;;;;1.45;1.35;;;;;;;10.08;nan;17231.81;4994888;28;20172;-75
2023/10/31 01:37:36;;;;;;;2.75;1.83;;;;;;;10.11;nan;14332.72;4993682;28;20519;-74
2023/10/31 01:40:03;;;;;;;1.55;1.45;;;;;;;10.01;nan;14651.31;4994816;28;20231;-73
2023/10/31 01:42:28;;;;;;;1.50;1.40;;;;;;;10.16;nan;13367.97;4995590;28;20173;-75
2023/10/31 01:44:54;;;;;;;1.90;1.73;;;;;;;10.14;nan;12079.47;4995115;28;20523;-75
2023/10/31 01:47:19;;;;;;;1.77;1.67;;;;;;;9.89;nan;10784.56;4995149;28;20169;-74
2023/10/31 01:49:44;;;;;;;2.15;1.95;;;;;;;10.12;nan;12078.69;4994911;28;20279;-74
2023/10/31 01:52:10;;;;;;;1.30;1.20;;;;;;;10.18;nan;12724.53;4994721;28;20204;-74
2023/10/31 01:54:36;;;;;;;1.20;1.20;;;;;;;10.00;nan;12718.88;4994873;28;20177;-75
2023/10/31 01:57:04;;;;;;;2.28;1.77;;;;;;;9.94;nan;12073.22;4994578;28;20204;-76
2023/10/31 01:59:30;;;;;;;1.42;1.33;;;;;;;10.16;nan;13046.09;4993350;28;20749;-73
2023/10/31 02:01:57;;;;;;;2.03;1.88;;;;;;;9.92;nan;13038.19;4994487;28;20268;-74
2023/10/31 02:04:24;;;;;;;2.13;1.88;;;;;;;9.93;nan;12394.75;4995083;28;20176;-75
2023/10/31 02:06:49;;;;;;;2.00;1.90;;;;;;;9.96;nan;11752.03;4994101;28;20168;-74
2023/10/31 02:09:15;;;;;;;1.50;1.40;;;;;;;9.73;nan;11423.28;4994163;28;20169;-75
2023/10/31 02:11:41;;;;;;;2.25;1.83;;;;;;;9.92;nan;11750.63;4994482;28;20239;-75
2023/10/31 02:14:06;;;;;;;2.83;2.08;;;;;;;9.84;nan;12713.53;4994448;28;20173;-75
2023/10/31 02:16:31;;;;;;;2.42;2.22;;;;;;;9.79;nan;13355.59;4994260;28;20272;-75
2023/10/31 02:18:57;;;;;;;4.28;2.28;;;;;;;9.51;nan;12703.03;4993977;28;20640;-76
2023/10/31 02:21:25;;;;;;;2.05;1.75;;;;;;;9.48;nan;11737.28;4994328;28;20610;-76
2023/10/31 02:24:01;;;;;;;1.90;1.80;;;;;;;9.58;nan;11097.19;4994110;28;20247;-74
2023/10/31 02:26:31;;;;;;;1.60;1.50;;;;;;;9.58;nan;9811.44;4994731;28;20190;-74
2023/10/31 02:28:57;;;;;;;1.50;1.40;;;;;;;9.41;nan;9485.31;5007695;28;20185;-74
2023/10/31 02:31:23;;;;;;;2.10;1.85;;;;;;;9.59;nan;6599.03;5003027;28;20203;-74
2023/10/31 02:33:48;;;;;;;1.40;1.30;;;;;;;9.48;nan;5312.66;4993103;28;20208;-74
2023/10/31 02:36:13;;;;;;;1.70;1.60;;;;;;;9.64;nan;5957.94;5009416;28;20238;-74
2023/10/31 02:38:39;;;;;;;1.42;1.35;;;;;;;9.36;nan;4989.28;4993023;28;20696;-73
2023/10/31 02:41:05;;;;;;;1.88;1.77;;;;;;;9.29;nan;4346.50;4993751;28;20176;-75
2023/10/31 02:43:31;;;;;;;1.65;1.55;;;;;;;9.38;nan;3706.66;4993363;28;20183;-75
2023/10/31 02:45:56;;;;;;;1.60;1.50;;;;;;;9.37;nan;2103.25;4992085;28;20185;-73
2023/10/31 02:48:21;;;;;;;2.35;1.88;;;;;;;9.29;nan;1140.81;4993731;28;20176;-73
2023/10/31 02:50:47;;;;;;;1.55;1.45;;;;;;;9.13;nan;1138.69;4993010;28;20176;-75
2023/10/31 02:53:12;;;;;;;1.83;1.70;;;;;;;9.29;nan;500.03;4993315;28;20645;-73
2023/10/31 02:55:38;;;;;;;1.80;1.70;;;;;;;9.30;nan;179.81;4993281;28;20173;-76
2023/10/31 02:58:03;;;;;;;1.65;1.55;;;;;;;9.09;nan;-783.22;4993068;28;20180;-73
2023/10/31 03:00:28;;;;;;;1.67;1.57;;;;;;;9.26;nan;-1741.97;4992622;28;20187;-74
2023/10/31 03:02:54;;;;;;;2.17;2.03;;;;;;;8.71;nan;-2386.19;4993389;28;20664;-74
2023/10/31 03:05:19;;;;;;;1.50;1.40;;;;;;;9.35;nan;-2701.63;4993300;28;20227;-74
2023/10/31 03:07:45;;;;;;;1.43;1.37;;;;;;;9.36;nan;-2381.50;4993049;28;20180;-73
2023/10/31 03:10:11;;;;;;;2.15;1.42;;;;;;;9.43;nan;-2701.09;4991880;28;20192;-73
2023/10/31 03:12:36;;;;;;;1.67;1.57;;;;;;;9.12;nan;-3662.88;4991227;28;20209;-75
2023/10/31 03:15:03;;;;;;;1.50;1.40;;;;;;;9.27;nan;-4621.78;4989754;28;20275;-73
2023/10/31 03:17:29;;;;;;;2.20;1.93;;;;;;;9.11;nan;-4622.38;4991203;28;20168;-75
2023/10/31 03:19:55;;;;;;;1.70;1.60;;;;;;;9.05;nan;-5262.00;4990939;28;20763;-75
2023/10/31 03:22:20;;;;;;;2.03;1.70;;;;;;;9.23;nan;-5900.97;4990566;28;20188;-75
2023/10/31 03:24:46;;;;;;;1.50;1.40;;;;;;;9.20;nan;-6220.69;4991511;28;20191;-74
2023/10/31 03:27:11;;;;;;;1.87;1.77;;;;;;;9.23;nan;-6859.94;4992831;28;20191;-73
2023/10/31 03:29:37;;;;;;;4.77;2.73;;;;;;;9.19;nan;-6859.94;4993165;28;20168;-73
2023/10/31 03:32:02;;;;;;;2.33;2.13;;;;;;;9.07;nan;-6859.94;4995283;28;20226;-75
2023/10/31 03:34:28;;;;;;;2.53;2.30;;;;;;;9.01;nan;-6859.94;5008162;28;20268;-74
2023/10/31 03:36:54;;;;;;;1.67;1.57;;;;;;;9.02;nan;-7179.41;4993028;28;20212;-74
2023/10/31 03:39:20;;;;;;;1.50;1.40;;;;;;;8.96;nan;-8776.16;4992908;28;20684;-73
2023/10/31 03:41:46;;;;;;;1.30;1.20;;;;;;;8.53;nan;-8455.75;4993115;28;20212;-74
2023/10/31 03:44:12;;;;;;;2.30;1.87;;;;;;;8.86;nan;-8456.59;4992616;28;20683;-75
2023/10/31 03:46:37;;;;;;;1.60;1.50;;;;;;;8.67;nan;-9094.38;4992759;28;20263;-75
2023/10/31 03:49:02;;;;;;;1.57;1.47;;;;;;;8.79;nan;-8775.63;4993070;28;20593;-75
2023/10/31 03:51:28;;;;;;;1.50;1.40;;;;;;;8.55;nan;-9093.91;4992897;28;20188;-75
2023/10/31 03:53:53;;;;;;;1.43;1.33;;;;;;;8.65;nan;-9732.38;4992867;28;20187;-73
2023/10/31 03:56:18;;;;;;;1.70;1.60;;;;;;;8.75;nan;-10370.97;4992641;28;20188;-75
2023/10/31 03:58:44;;;;;;;1.77;1.67;;;;;;;8.66;nan;-10370.44;4992448;28;20593;-75
2023/10/31 04:01:10;;;;;;;1.80;1.70;;;;;;;8.53;nan;-10050.78;5007718;28;20188;-75
2023/10/31 04:03:35;;;;;;;1.63;1.53;;;;;;;8.49;nan;-10050.56;4992631;28;20278;-75
2023/10/31 04:06:00;;;;;;;1.47;1.37;;;;;;;8.64;nan;-10689.28;4992669;28;20181;-75
2023/10/31 04:08:26;;;;;;;1.60;1.50;;;;;;;8.54;nan;-10688.63;4992964;28;20218;-75
2023/10/31 04:10:51;;;;;;;1.10;1.10;;;;;;;8.51;nan;-10050.66;4991389;28;20195;-75
2023/10/31 04:13:16;;;;;;;1.50;1.40;;;;;;;8.32;nan;-10049.66;4992276;28;20193;-75
2023/10/31 04:15:42;;;;;;;1.47;1.33;;;;;;;8.22;nan;-10686.59;4992214;28;20261;-75
2023/10/31 04:18:07;;;;;;;1.47;1.37;;;;;;;8.21;nan;-10367.81;4992266;28;20659;-75
2023/10/31 04:20:33;;;;;;;1.50;1.40;;;;;;;8.50;nan;-10050.59;5007282;28;20260;-76
2023/10/31 04:22:58;;;;;;;1.80;1.70;;;;;;;8.20;nan;-9411.44;4990928;28;20327;-75
2023/10/31 04:25:24;;;;;;;1.60;1.50;;;;;;;7.06;nan;-9406.63;4992360;28;20177;-76
2023/10/31 04:27:49;;;;;;;1.37;1.27;;;;;;;8.02;nan;-10048.06;4992103;28;20180;-76
2023/10/31 04:30:15;;;;;;;1.33;1.23;;;;;;;8.12;nan;-9729.88;4992169;28;20177;-74
2023/10/31 04:32:40;;;;;;;1.67;1.57;;;;;;;7.82;nan;-10047.06;4996040;28;20303;-76
2023/10/31 04:35:06;;;;;;;1.73;1.63;;;;;;;7.90;nan;-11003.16;4996555;28;20179;-76
2023/10/31 04:37:31;;;;;;;1.77;1.67;;;;;;;7.61;nan;-11319.50;4995800;28;20181;-76
2023/10/31 04:39:56;;;;;;;1.60;1.50;;;;;;;7.38;nan;-11636.00;4995892;28;20173;-76
2023/10/31 04:42:22;;;;;;;1.33;1.23;;;;;;;7.77;nan;-11957.44;4996220;28;20654;-74
2023/10/31 04:44:48;;;;;;;1.73;1.57;;;;;;;7.85;nan;-12276.50;4995917;28;20184;-74
2023/10/31 04:47:13;;;;;;;1.40;1.30;;;;;;;7.59;nan;-12910.47;4996201;28;20173;-76
2023/10/31 04:49:39;;;;;;;1.50;1.40;;;;;;;7.65;nan;-13229.31;4996034;28;20165;-76
2023/10/31 04:52:04;;;;;;;1.83;1.73;;;;;;;;;;4994668;28;20299;-74
2023/10/31 04:54:29;;;;;;;1.50;1.40;;;;;;;7.91;nan;-14186.81;4995453;28;20617;-74
2023/10/31 04:56:55;;;;;;;0.90;0.90;;;;;;;7.93;nan;-14823.38;4994302;28;20185;-76
2023/10/31 04:59:20;;;;;;;1.70;1.60;;;;;;;7.78;nan;-15775.53;4995820;28;20588;-75
2023/10/31 05:01:55;;;;;;;1.43;1.33;;;;;;;7.97;nan;-16096.41;4994703;28;20180;-74
2023/10/31 05:04:20;;;;;;;1.67;1.57;;;;;;;7.88;nan;-16413.00;4995705;28;20192;-75
2023/10/31 05:06:45;;;;;;;1.40;1.30;;;;;;;8.04;nan;-16733.41;4994126;28;20212;-76
2023/10/31 05:09:11;;;;;;;1.20;1.17;;;;;;;8.17;nan;-17053.59;4995479;28;20227;-76
2023/10/31 05:11:37;;;;;;;1.60;1.33;;;;;;;8.26;nan;-17055.22;4994908;28;20192;-75
2023/10/31 05:14:02;;;;;;;1.67;1.57;;;;;;;8.32;nan;-17056.13;4995622;28;20495;-74
2023/10/31 05:16:28;;;;;;;1.53;1.43;;;;;;;8.30;nan;-17055.88;4994842;28;20200;-74
2023/10/31 05:18:53;;;;;;;1.20;1.20;;;;;;;8.43;nan;-17376.25;4994701;28;20598;-75
2023/10/31 05:21:23;;;;;;;1.43;1.33;;;;;;;8.30;nan;-17373.91;4995513;28;20200;-75
2023/10/31 05:23:49;;;;;;;1.30;1.20;;;;;;;8.64;nan;-17379.72;4993507;28;20183;-74
2023/10/31 05:26:14;;;;;;;3.43;2.47;;;;;;;8.67;nan;-17062.03;4994835;28;20181;-74
2023/10/31 05:28:41;;;;;;;2.00;1.90;;;;;;;8.88;nan;-16428.63;5006082;28;20271;-74
2023/10/31 05:31:06;;;;;;;1.63;1.43;;;;;;;9.02;nan;-15474.88;5029325;28;20172;-75
2023/10/31 05:33:32;;;;;;;3.53;2.17;;;;;;;8.88;nan;-15472.91;5002081;28;20378;-77
2023/10/31 05:35:57;;;;;;;2.30;1.80;;;;;;;9.13;nan;-15157.72;4995024;28;20168;-74
2023/10/31 05:38:22;;;;;;;1.90;1.80;;;;;;;9.03;nan;-12605.84;5009564;28;20893;-74
2023/10/31 05:40:48;;;;;;;1.67;1.57;;;;;;;9.20;nan;-12607.47;4994826;28;20177;-75
2023/10/31 05:43:13;;;;;;;1.50;1.40;;;;;;;9.34;nan;-11332.16;4993338;28;20618;-76
2023/10/31 05:45:39;;;;;;;2.30;2.00;;;;;;;9.35;nan;-10693.66;4993613;28;20188;-75
2023/10/31 05:48:04;;;;;;;1.37;1.27;;;;;;;9.28;nan;-11012.50;4994385;28;20644;-73
2023/10/31 05:50:30;;;;;;;1.40;1.30;;;;;;;9.44;nan;-10694.22;5009353;28;20172;-76
2023/10/31 05:52:56;;;;;;;2.30;2.10;;;;;;;9.52;nan;-10694.75;4994657;28;20210;-74
2023/10/31 05:55:21;;;;;;;2.30;2.03;;;;;;;9.59;nan;-11333.97;4993884;28;20177;-76
2023/10/31 05:57:46;;;;;;;5.27;2.30;;;;;;;9.72;nan;-11015.47;4994310;28;20632;-74
2023/10/31 06:00:12;;;;;;;2.17;1.97;;;;;;;9.65;nan;-10695.56;4994369;28;20183;-76
2023/10/31 06:02:38;;;;;;;1.50;1.40;;;;;;;9.82;nan;-10696.63;4993956;28;20711;-75
2023/10/31 06:05:03;;;;;;;1.77;1.67;;;;;;;9.82;nan;-10377.06;4993907;28;20168;-74
2023/10/31 06:07:30;;;;;;;1.85;1.75;;;;;;;10.11;nan;-10059.00;4994243;28;20173;-74
2023/10/31 06:09:55;;;;;;;2.60;2.00;;;;;;;10.25;nan;-9100.06;4994147;28;20518;-74
2023/10/31 06:12:21;;;;;;;2.90;1.75;;;;;;;10.34;nan;-6219.47;4993921;28;20683;-73
2023/10/31 06:14:46;;;;;;;1.92;1.80;;;;;;;10.42;nan;-4937.97;4992661;28;20320;-74
2023/10/31 06:17:11;;;;;;;1.75;1.60;;;;;;;10.39;nan;-4938.06;4993946;28;20666;-72
2023/10/31 06:19:37;;;;;;;1.85;1.75;;;;;;;10.61;nan;-3975.69;4993787;28;20224;-75
2023/10/31 06:22:03;;;;;;;7.30;2.22;;;;;;;10.66;nan;-1730.31;4994034;28;20183;-75
2023/10/31 06:24:29;;;;;;;3.95;2.25;;;;;;;10.80;nan;-1087.19;4993752;28;20169;-74
2023/10/31 06:26:54;;;;;;;2.45;2.25;;;;;;;10.83;nan;1160.88;4994079;28;20662;-74
2023/10/31 06:29:20;;;;;;;1.50;1.40;;;;;;;11.06;nan;2771.06;4993712;28;20165;-74
2023/10/31 06:31:45;;;;;;;2.22;2.05;;;;;;;11.22;nan;5025.38;4994215;28;20200;-72
2023/10/31 06:34:11;;;;;;;2.88;2.22;;;;;;;11.10;nan;7920.09;4993639;28;20172;-74
2023/10/31 06:36:36;;;;;;;1.42;1.33;;;;;;;11.30;nan;8891.53;4993523;28;20183;-75
2023/10/31 06:39:02;;;;;;;1.92;1.75;;;;;;;11.29;nan;9213.38;4993173;28;20173;-74
2023/10/31 06:41:27;;;;;;;1.85;1.73;;;;;;;11.61;nan;11802.09;4993357;28;20173;-72
2023/10/31 06:43:53;;;;;;;1.70;1.60;;;;;;;11.67;nan;11803.97;4993518;28;20537;-75
2023/10/31 06:46:18;;;;;;;1.88;1.77;;;;;;;11.82;nan;16330.84;4993288;28;20215;-73
2023/10/31 06:48:43;;;;;;;3.38;2.85;;;;;;;12.02;nan;19249.59;4993422;28;20691;-74
2023/10/31 06:51:09;;;;;;;1.67;1.55;;;;;;;12.08;nan;17957.84;4993762;28;20180;-73
2023/10/31 06:53:34;;;;;;;2.25;2.05;;;;;;;12.14;nan;16666.34;4992738;28;20214;-74
2023/10/31 06:56:00;;;;;;;2.85;1.77;;;;;;;12.11;nan;17959.09;4993254;28;20671;-72
2023/10/31 06:58:25;;;;;;;1.20;1.20;;;;;;;12.24;nan;19259.09;4992798;28;20234;-76
2023/10/31 07:00:51;;;;;;;1.80;1.58;;;;;;;12.29;nan;22176.16;4993034;28;20176;-73
2023/10/31 07:03:17;;;;;;;1.85;1.50;;;;;;;12.61;nan;22191.53;4993260;28;20177;-62
2023/10/31 07:05:42;;;;;;;2.53;2.08;;;;;;;12.92;nan;22206.22;4993835;28;20173;-61
2023/10/31 07:08:09;;;;;;;1.35;1.25;;;;;;;13.15;nan;19298.06;4993928;28;20209;-62
2023/10/31 07:10:34;;;;;;;4.90;2.33;;;;;;;13.16;nan;26439.03;4993165;28;20181;-62
2023/10/31 07:13:00;;;;;;;2.20;2.10;;;;;;;13.33;nan;32628.66;4993747;28;20544;-62
2023/10/31 07:15:26;;;;;;;1.98;1.85;;;;;;;13.42;nan;34263.22;4993578;28;20636;-61
2023/10/31 07:17:51;;;;;;;1.80;1.70;;;;;;;13.54;nan;38681.28;4993021;28;20210;-62
2023/10/31 07:20:17;;;;;;;2.05;1.65;;;;;;;11.56;nan;38927.50;4993091;28;20602;-63
2023/10/31 07:22:42;;;;;;;1.98;1.75;;;;;;;13.87;nan;42860.84;4993437;28;20615;-62
2023/10/31 07:25:08;;;;;;;2.45;2.25;;;;;;;13.83;nan;45154.50;4992845;28;20200;-61
2023/10/31 07:27:33;;;;;;;1.50;1.40;;;;;;;14.18;nan;48023.56;4993358;28;20251;-61
2023/10/31 07:29:59;;;;;;;1.58;1.48;;;;;;;14.31;nan;49253.97;4993179;28;20171;-62
2023/10/31 07:32:25;;;;;;;2.03;1.77;;;;;;;14.48;nan;50253.47;4992980;28;20203;-62
2023/10/31 07:34:52;;;;;;;3.05;2.13;;;;;;;14.47;nan;52215.53;4993001;28;20185;-62
2023/10/31 07:37:17;;;;;;;2.67;2.03;;;;;;;14.86;nan;54018.47;4992718;28;20640;-63
2023/10/31 07:39:43;;;;;;;2.72;1.45;;;;;;;15.05;nan;55387.75;4992519;28;20252;-62
2023/10/31 07:42:08;;;;;;;1.48;1.38;;;;;;;15.15;nan;56206.78;4992479;28;20624;-61
2023/10/31 07:44:34;;;;;;;1.73;1.63;;;;;;;15.18;nan;56433.44;4993291;28;20255;-61
2023/10/31 07:47:00;;;;;;;1.42;1.33;;;;;;;15.29;nan;56360.19;4992689;28;20176;-62
2023/10/31 07:49:25;;;;;;;1.90;1.50;;;;;;;15.37;nan;56964.94;4992830;28;20177;-62
2023/10/31 07:51:50;;;;;;;4.15;1.92;;;;;;;15.51;nan;57367.53;4992553;28;20687;-62
2023/10/31 07:54:16;;;;;;;2.78;2.53;;;;;;;15.59;nan;56368.50;4992696;28;20177;-61
2023/10/31 07:56:41;;;;;;;2.58;2.10;;;;;;;15.59;nan;56761.41;4992452;28;20687;-61
2023/10/31 07:59:10;;;;;;;2.75;2.50;;;;;;;15.71;nan;57229.34;4992680;28;20212;-62
2023/10/31 08:01:36;;;;;;;1.73;1.63;;;;;;;15.86;nan;57724.41;4992714;28;20184;-62
2023/10/31 08:04:02;;;;;;;1.67;1.58;;;;;;;14.76;nan;57705.41;4992587;28;20165;-61
2023/10/31 08:06:27;;;;;;;2.30;2.08;;;;;;;16.25;nan;58254.94;4994287;28;20247;-63
2023/10/31 08:08:52;;;;;;;1.98;1.77;;;;;;;16.16;nan;58337.41;4996693;28;20233;-62
2023/10/31 08:11:18;;;;;;;2.67;2.10;;;;;;;16.22;nan;58437.13;4996411;28;20550;-62
2023/10/31 08:13:44;;;;;;;2.10;1.48;;;;;;;16.31;nan;58732.81;4996570;28;20199;-62
2023/10/31 08:16:09;;;;;;;2.05;1.88;;;;;;;16.40;nan;58767.81;4996756;28;20242;-62
2023/10/31 08:18:35;;;;;;;1.40;1.30;;;;;;;16.42;nan;58756.53;4996556;28;20242;-63
2023/10/31 08:21:01;;;;;;;1.80;1.70;;;;;;;16.48;nan;58654.84;4996814;28;20399;-61
2023/10/31 08:23:28;;;;;;;4.53;2.17;;;;;;;16.57;nan;58968.72;4996280;28;20183;-61
2023/10/31 08:25:54;;;;;;;1.73;1.50;;;;;;;16.91;nan;59206.44;4996582;28;20646;-63
2023/10/31 08:28:19;;;;;;;1.80;1.70;;;;;;;17.15;nan;59488.16;4996292;28;20264;-62
2023/10/31 08:30:45;;;;;;;2.17;1.85;;;;;;;17.20;nan;59591.69;4996118;28;20603;-62
2023/10/31 08:33:10;;;;;;;1.42;1.33;;;;;;;17.31;nan;59678.66;4996189;28;20208;-62
2023/10/31 08:35:35;;;;;;;1.88;1.65;;;;;;;17.28;nan;59744.47;4997024;28;20173;-62
2023/10/31 08:38:01;;;;;;;1.23;1.15;;;;;;;17.57;nan;60019.75;4996030;28;20231;-61
2023/10/31 08:40:26;;;;;;;3.40;2.05;;;;;;;17.60;nan;60134.16;4996024;28;20208;-62
2023/10/31 08:42:52;;;;;;;1.50;1.40;;;;;;;17.54;nan;60168.22;4995955;28;20177;-62
2023/10/31 08:45:17;;;;;;;2.97;1.88;;;;;;;17.65;nan;60299.28;4995687;28;20184;-62
2023/10/31 08:47:43;;;;;;;2.13;1.80;;;;;;;17.88;nan;60373.41;4996069;28;20656;-62
2023/10/31 08:50:08;;;;;;;3.53;2.17;;;;;;;18.03;nan;60418.53;4995016;28;20234;-62
2023/10/31 08:52:34;;;;;;;2.30;1.75;;;;;;;18.04;nan;60517.84;4994225;28;21150;-63
2023/10/31 08:55:00;;;;;;;1.80;1.50;;;;;;;18.27;nan;60672.78;4995930;28;20264;-61
2023/10/31 08:57:25;;;;;;;1.27;1.17;;;;;;;18.24;nan;60692.16;4995661;28;20275;-61
2023/10/31 08:59:51;;;;;;;1.52;1.42;;;;;;;18.28;nan;60704.94;4995936;28;20176;-62
2023/10/31 09:02:16;;;;;;;2.40;1.33;;;;;;;18.17;nan;60713.34;4995443;28;20639;-63
2023/10/31 09:04:42;;;;;;;1.60;1.50;;;;;;;18.50;nan;60798.84;4995447;28;20169;-62
2023/10/31 09:07:07;;;;;;;1.40;1.30;;;;;;;18.65;nan;60817.69;4995641;28;20183;-63
2023/10/31 09:09:33;;;;;;;2.58;1.65;;;;;;;18.64;nan;60925.25;4996197;28;20200;-62
2023/10/31 09:11:58;;;;;;;1.02;1.02;;;;;;;18.80;nan;60938.59;4995909;28;20291;-62
2023/10/31 09:14:24;;;;;;;1.52;1.35;;;;;;;18.91;nan;61072.06;4995673;28;20240;-62
2023/10/31 09:16:49;;;;;;;1.48;1.38;;;;;;;19.16;nan;61061.31;4995169;28;20264;-63
2023/10/31 09:19:15;;;;;;;1.98;1.20;;;;;;;19.09;nan;61130.56;4995409;28;20266;-63
2023/10/31 09:21:40;;;;;;;3.25;2.28;;;;;;;19.17;nan;61085.75;4995525;28;20176;-62
2023/10/31 09:24:07;;;;;;;1.30;1.20;;;;;;;19.32;nan;61177.75;4994958;28;20710;-62
2023/10/31 09:26:33;;;;;;;2.15;1.67;;;;;;;19.38;nan;61215.59;4995642;28;20177;-63
2023/10/31 09:28:59;;;;;;;2.10;1.70;;;;;;;19.53;nan;61273.41;4995385;28;20187;-61
2023/10/31 09:31:24;;;;;;;1.60;1.52;;;;;;;19.66;nan;61437.84;4995302;28;20177;-63
2023/10/31 09:33:49;;;;;;;1.38;1.27;;;;;;;19.61;nan;61546.22;4994960;28;20173;-63
2023/10/31 09:36:15;;;;;;;2.08;1.20;;;;;;;19.76;nan;61428.97;4994130;28;20603;-63
2023/10/31 09:38:41;;;;;;;2.40;2.10;;;;;;;19.60;nan;61556.03;4995004;28;20161;-63
2023/10/31 09:41:06;;;;;;;1.70;1.30;;;;;;;19.93;nan;61548.19;4994954;28;20177;-63
2023/10/31 09:43:32;;;;;;;1.42;1.33;;;;;;;19.78;nan;61536.97;4994776;28;20177;-63
2023/10/31 09:46:00;;;;;;;2.13;1.23;;;;;;;19.88;nan;61711.66;4994797;28;20196;-62
2023/10/31 09:48:25;;;;;;;1.48;1.20;;;;;;;19.97;nan;61623.31;4994862;28;20623;-64
2023/10/31 09:50:52;;;;;;;1.63;1.30;;;;;;;19.95;nan;61724.19;4994870;28;20172;-63
2023/10/31 09:53:19;;;;;;;1.75;1.20;;;;;;;20.10;nan;61616.72;4994048;28;20291;-62
2023/10/31 09:55:46;;;;;;;1.70;1.25;;;;;;;20.41;nan;61669.47;4994043;28;20185;-62
2023/10/31 09:58:12;;;;;;;1.98;1.45;;;;;;;20.53;nan;61675.84;4994408;28;20183;-61
2023/10/31 10:00:40;;;;;;;2.83;1.50;;;;;;;20.58;nan;61964.50;4993955;28;20164;-62
2023/10/31 10:03:10;;;;;;;2.20;1.58;;;;;;;20.63;nan;61661.22;4994217;28;20173;-63
2023/10/31 10:05:36;;;;;;;1.77;1.30;;;;;;;20.74;nan;61719.88;4994300;28;20180;-63
2023/10/31 10:08:03;;;;;;;1.08;1.08;;;;;;;20.58;nan;61678.91;4994052;28;20172;-63
2023/10/31 10:10:29;;;;;;;1.05;1.05;;;;;;;20.70;nan;61777.66;4993734;28;20534;-62
2023/10/31 10:12:55;;;;;;;1.08;1.00;;;;;;;20.18;nan;61605.03;4993867;28;20223;-62
2023/10/31 10:15:21;;;;;;;1.42;1.13;;;;;;;20.17;nan;61777.72;4993990;28;20191;-62
2023/10/31 10:17:52;;;;;;;1.45;1.23;;;;;;;20.15;nan;61778.63;4993677;28;20560;-61
2023/10/31 10:20:18;;;;;;;1.17;1.10;;;;;;;20.35;nan;61671.00;4993843;28;20220;-62
2023/10/31 10:22:44;;;;;;;1.52;1.17;;;;;;;20.57;nan;61742.13;4993987;28;20172;-61
2023/10/31 10:25:18;;;;;;;1.50;1.23;;;;;;;20.73;nan;61768.06;4993794;28;20589;-63
2023/10/31 10:27:44;;;;;;;2.15;1.95;;;;;;;20.68;nan;61708.44;4993539;28;20191;-62
2023/10/31 10:30:11;;;;;;;1.45;1.35;;;;;;;21.00;nan;61835.09;4991393;28;20243;-63
2023/10/31 10:32:36;;;;;;;1.15;0.82;;;;;;;21.14;nan;61775.66;4992241;28;20605;-62
2023/10/31 10:35:02;;;;;;;4.20;1.90;;;;;;;21.23;nan;61704.19;4991377;28;20782;-63
2023/10/31 10:37:28;;;;;;;1.45;1.23;;;;;;;21.18;nan;61799.88;4992131;28;20176;-63
2023/10/31 10:39:56;;;;;;;1.75;1.65;;;;;;;21.13;nan;61925.25;4992263;28;20181;-63
2023/10/31 10:42:46;;;;;;;2.03;1.30;;;;;;;21.40;nan;61858.63;4984445;28;20169;-63
2023/10/31 10:45:13;;;;;;;3.28;1.75;;;;;;;21.32;nan;61769.53;4990373;28;20266;-63
2023/10/31 10:47:39;;;;;;;1.60;1.30;;;;;;;21.42;nan;61788.13;4992098;28;20181;-62
2023/10/31 10:50:06;;;;;;;2.42;1.45;;;;;;;21.48;nan;61800.69;4990822;28;20234;-63
2023/10/31 10:53:18;;;;;;;1.42;1.10;;;;;;;21.73;nan;61937.75;4991429;28;20211;-62
2023/10/31 10:55:46;;;;;;;1.60;1.33;;;;;;;21.70;nan;61866.16;4931923;29;20257;-63
2023/10/31 10:58:44;;;;;;;1.00;1.00;;;;;;;21.41;nan;61932.56;4930895;29;20273;-63
2023/10/31 11:01:10;;;;;;;1.10;1.00;;;;;;;21.53;nan;61855.78;4977818;28;20193;-63
2023/10/31 11:03:37;;;;;;;1.75;1.63;;;;;;;21.70;nan;61830.31;4991367;28;20256;-63
2023/10/31 11:06:03;;;;;;;2.55;2.35;;;;;;;21.89;nan;61984.56;4990775;28;20622;-63
2023/10/31 11:08:30;;;;;;;1.88;1.10;;;;;;;22.01;nan;61912.38;4991030;28;20189;-62
2023/10/31 11:10:55;;;;;;;1.92;1.40;;;;;;;22.00;nan;62028.34;4990383;28;20220;-62
2023/10/31 11:13:22;;;;;;;1.60;1.40;;;;;;;22.07;nan;61929.03;4990664;28;20307;-62
2023/10/31 11:15:54;;;;;;;1.88;1.38;;;;;;;22.09;nan;61972.97;4991448;28;20195;-63
2023/10/31 11:18:20;;;;;;;2.00;1.40;;;;;;;21.96;nan;61857.25;4990792;28;20263;-63
2023/10/31 11:20:46;;;;;;;2.45;1.50;;;;;;;22.01;nan;61930.03;4991561;28;20315;-63
2023/10/31 11:23:11;;;;;;;1.33;1.15;;;;;;;22.08;nan;61932.22;4990721;28;20199;-62
2023/10/31 11:25:43;;;;;;;1.58;1.38;;;;;;;22.00;nan;61897.66;4991971;28;20181;-62
2023/10/31 11:28:14;;;;;;;2.33;1.38;;;;;;;21.88;nan;62003.66;4992269;28;20272;-62
2023/10/31 11:30:42;;;;;;;2.00;1.55;;;;;;;21.92;nan;61982.19;4990174;28;20706;-62
2023/10/31 11:33:11;;;;;;;2.42;1.63;;;;;;;22.17;nan;61927.41;4990931;28;20235;-62
2023/10/31 11:35:39;;;;;;;4.25;2.08;;;;;;;21.87;nan;61898.50;4989058;28;20226;-62
2023/10/31 11:38:06;;;;;;;1.25;1.15;;;;;;;21.97;nan;61892.22;4990874;28;20191;-62
2023/10/31 11:40:32;;;;;;;1.20;1.08;;;;;;;21.89;nan;61937.16;4992401;28;20273;-64
2023/10/31 11:43:01;;;;;;;1.05;0.95;;;;;;;20.05;nan;63458.31;4991020;28;20637;-64
2023/10/31 11:45:33;;;;;;;1.55;1.45;;;;;;;21.69;nan;61982.06;4991069;28;20181;-64
2023/10/31 11:47:59;;;;;;;1.65;1.33;;;;;;;21.85;nan;61917.00;4988269;28;20188;-64